»·PEaware :: N150P CYVR-KPAE

N150P :: CYVR-KPAE

FLIGHT INFORMATION

Flight Status: Arrived
Operator: Privately registered:
United States
More flights under this callsign
Pilot: Scott M. (2887)
Aircraft: CESSNA 182 SKYLANE
(C182)
More flights by this aircraft type
Origin: CYVR Vancouver Intl
Canada
Destination: KPAE Paine Field/Snohomish Co.
United States
More flights between these airports :: More routes between these airports
Route: +YVR V23 PAE
File this flight plan on PilotEdge
Remarks:
Altitude:
(Current/Filed)
9,000ft
Speed:
(Current/Filed)
116kts
Departed: 30-Oct-19 07:57 AM
Arrived: 30-Oct-19 08:45 AM
Distance/Time
Traveled:
85nm/0:47
Distance/Time
To Go:
Arrived

Flight Plot

Page will automatically refresh every two minutes.

Flight plan parsing failed; only flown route is shown


Map Options




Map Legend


Flown Route
Filed Route
Departure Airport
Arrival Airport
Navaid (VOR, NDB)
Fix

Horizontal Profiles

Position Reports

Time Latitude Longitude Heading Altitude Ground
Speed
30-Oct-19 07:22 49.179582 -123.170953 90 17ft 0kts
30-Oct-19 07:23 49.179582 -123.170953 90 17ft 0kts
30-Oct-19 07:24 49.179582 -123.170953 90 17ft 0kts
30-Oct-19 07:25 49.179582 -123.170953 90 17ft 0kts
30-Oct-19 07:26 49.179582 -123.170953 90 17ft 0kts
30-Oct-19 07:27 49.179582 -123.170953 90 17ft 0kts
30-Oct-19 07:28 49.179582 -123.170953 90 17ft 0kts
30-Oct-19 07:29 49.179582 -123.170949 90 17ft 0kts
30-Oct-19 07:30 49.179582 -123.170938 90 17ft 0kts
30-Oct-19 07:31 49.179582 -123.170928 90 17ft 0kts
30-Oct-19 07:32 49.179582 -123.170919 90 17ft 0kts
30-Oct-19 07:33 49.179582 -123.170908 89 17ft 0kts
30-Oct-19 07:34 49.179582 -123.170900 89 17ft 0kts
30-Oct-19 07:35 49.179582 -123.170891 89 17ft 0kts
30-Oct-19 07:36 49.179582 -123.170885 89 17ft 0kts
30-Oct-19 07:37 49.179582 -123.170882 89 17ft 0kts
30-Oct-19 07:38 49.179582 -123.170874 89 17ft 0kts
30-Oct-19 07:39 49.179582 -123.170862 89 17ft 0kts
30-Oct-19 07:40 49.179583 -123.170723 84 17ft 4kts
30-Oct-19 07:41 49.180809 -123.171446 4 17ft 9kts
30-Oct-19 07:42 49.183235 -123.172489 327 17ft 12kts
30-Oct-19 07:43 49.184351 -123.175274 280 17ft 11kts
30-Oct-19 07:44 49.184824 -123.179364 279 17ft 6kts
30-Oct-19 07:45 49.185223 -123.182827 280 17ft 11kts
30-Oct-19 07:46 49.185813 -123.188045 279 17ft 13kts
30-Oct-19 07:47 49.186534 -123.194123 281 17ft 14kts
30-Oct-19 07:48 49.187229 -123.200320 279 17ft 13kts
30-Oct-19 07:49 49.187551 -123.202858 281 17ft 10kts
30-Oct-19 07:50 49.188401 -123.205692 59 17ft 6kts
30-Oct-19 07:51 49.188461 -123.205502 66 17ft 0kts
30-Oct-19 07:52 49.188467 -123.205481 66 17ft 0kts
30-Oct-19 07:53 49.188475 -123.205454 66 17ft 0kts
30-Oct-19 07:54 49.188482 -123.205428 66 17ft 1kts
30-Oct-19 07:55 49.189644 -123.203299 98 17ft 9kts
30-Oct-19 07:56 49.187711 -123.180642 92 527ft 73kts
30-Oct-19 07:57 49.170776 -123.163263 151 1404ft 89kts
30-Oct-19 07:58 49.144790 -123.150723 159 2123ft 91kts
30-Oct-19 07:59 49.124801 -123.154766 129 2589ft 91kts
30-Oct-19 08:00 49.103535 -123.168324 207 2945ft 107kts
30-Oct-19 08:01 49.078261 -123.159505 122 3634ft 94kts
30-Oct-19 08:02 49.075463 -123.122030 101 4266ft 87kts
30-Oct-19 08:03 49.069504 -123.085280 103 4793ft 96kts
30-Oct-19 08:04 49.060957 -123.044336 103 5316ft 106kts
30-Oct-19 08:05 49.046092 -123.007369 163 5885ft 105kts
30-Oct-19 08:06 49.026415 -122.978236 103 6425ft 103kts
30-Oct-19 08:07 49.015026 -122.935225 110 6956ft 116kts
30-Oct-19 08:08 49.001898 -122.889415 110 7566ft 118kts
30-Oct-19 08:09 48.988563 -122.843259 110 8160ft 118kts
30-Oct-19 08:10 48.979209 -122.795664 88 8572ft 130kts
30-Oct-19 08:12 48.969406 -122.736299 107 8519ft 147kts
30-Oct-19 08:13 48.954878 -122.677174 101 8448ft 156kts
30-Oct-19 08:14 48.948976 -122.619822 47 8502ft 128kts
30-Oct-19 08:15 48.950526 -122.575242 145 8582ft 135kts
30-Oct-19 08:16 48.923498 -122.556837 160 8751ft 128kts
30-Oct-19 08:17 48.890573 -122.535793 160 8870ft 128kts
30-Oct-19 08:18 48.856978 -122.514317 160 8961ft 129kts
30-Oct-19 08:19 48.823080 -122.493205 173 8983ft 133kts
30-Oct-19 08:20 48.798903 -122.523252 230 8992ft 120kts
30-Oct-19 08:21 48.763637 -122.521679 174 8975ft 136kts
30-Oct-19 08:22 48.728237 -122.499346 156 8977ft 138kts
30-Oct-19 08:23 48.692709 -122.477849 165 8985ft 137kts
30-Oct-19 08:24 48.656274 -122.464704 194 9023ft 131kts
30-Oct-19 08:25 48.619962 -122.455622 167 9028ft 137kts
30-Oct-19 08:26 48.582999 -122.441819 171 9026ft 137kts
30-Oct-19 08:27 48.545471 -122.431499 180 9023ft 136kts
30-Oct-19 08:28 48.508886 -122.431517 181 9033ft 135kts
30-Oct-19 08:29 48.472964 -122.426694 175 9049ft 136kts
30-Oct-19 08:29 48.440704 -122.419662 173 8844ft 150kts
30-Oct-19 08:31 48.390044 -122.406514 172 8151ft 160kts
30-Oct-19 08:32 48.346150 -122.394238 172 7488ft 159kts
30-Oct-19 08:32 48.310990 -122.385117 171 6915ft 157kts
30-Oct-19 08:33 48.270145 -122.374030 170 6247ft 155kts
30-Oct-19 08:35 48.221194 -122.360208 170 5424ft 151kts
30-Oct-19 08:35 48.187262 -122.350810 171 4830ft 147kts
30-Oct-19 08:36 48.149041 -122.341820 167 4134ft 136kts
30-Oct-19 08:37 48.112489 -122.331646 166 3474ft 146kts
30-Oct-19 08:38 48.075846 -122.320007 159 3012ft 114kts
30-Oct-19 08:39 48.049817 -122.296008 142 3031ft 118kts
30-Oct-19 08:40 48.021097 -122.287934 178 2409ft 103kts
30-Oct-19 08:41 47.989536 -122.286768 177 1855ft 120kts
30-Oct-19 08:42 47.958143 -122.287207 184 1285ft 85kts
30-Oct-19 08:43 47.935477 -122.286347 176 893ft 81kts
30-Oct-19 08:44 47.916373 -122.285789 176 573ft 40kts
30-Oct-19 08:45 47.911176 -122.285445 145 573ft 2kts
30-Oct-19 08:46 47.910936 -122.284760 86 573ft 0kts

Navigation Log

Ident Type
Flight plan parsing failed, navigation log unavailable